Siempre Rufo — EA6245 — position and weather

sailwx.info

Track history (hours):
 
Tides and Currents Weather Stations Pressure Air Temp Water Temp Dewpoint Dewpoint Depression Visibility Wind Speed Wind Dir Waves Ship Positions

Siempre Rufo

Last reported at 2017-Dec-07 03:47 UTC. Time now 2017-Dec-11 17:25 UTC.
Position N 43°27' W 003°49'.

Length 18 m.

Type: Fishing. MMSI: 224011530.

Date/timePositionNaut miles runAvg speedWind from/ knotsBaromVisibWave heightAir tempDewpointWater temp
2017-Dec-07 03:47N 43°27' W 003°49'5 6.9
2017-Dec-07 03:04N 43°29' W 003°43'1 8.4
2017-Dec-07 02:54N 43°30' W 003°42'3 8.3
2017-Dec-07 02:30N 43°31' W 003°37'4 8.2
2017-Dec-07 02:00N 43°32' W 003°32'4 8.7
2017-Dec-07 01:30N 43°33' W 003°26'4 8.8
2017-Dec-07 01:00N 43°34' W 003°20'4 8.7
2017-Dec-07 00:30N 43°35' W 003°14'5 9.0
2017-Dec-07 00:00N 43°36' W 003°08'4 8.6
2017-Dec-06 23:30N 43°38' W 003°03'4 8.5
2017-Dec-06 23:00N 43°39' W 002°57'4 8.5
2017-Dec-06 22:30N 43°40' W 002°52'4 8.9
2017-Dec-06 22:01N 43°42' W 002°46'4 8.8
2017-Dec-06 21:30N 43°43' W 002°40'4 8.8
2017-Dec-06 21:00N 43°44' W 002°34'  
2017-Dec-04 10:30N 43°50' W 002°02'0 1.0
2017-Dec-04 10:00N 43°51' W 002°02'0 0.7
2017-Dec-04 09:30N 43°51' W 002°02'2 3.3
2017-Dec-04 09:00N 43°49' W 002°02'3 6.9
2017-Dec-04 08:30N 43°46' W 002°01'0 0.2
2017-Dec-04 08:00N 43°46' W 002°01'0 0.2
2017-Dec-04 07:30N 43°46' W 002°01'0 0.2
2017-Dec-04 07:00N 43°46' W 002°01'0 0.1
2017-Dec-04 06:30N 43°46' W 002°01'0 0.1
2017-Dec-04 06:00N 43°46' W 002°01'1 1.5
2017-Dec-04 05:30N 43°46' W 002°01'1 1.6
2017-Dec-04 05:00N 43°47' W 002°01'1 1.4
2017-Dec-04 04:30N 43°48' W 002°01'1 2.5
2017-Dec-04 04:00N 43°49' W 002°02'1 2.7
2017-Dec-04 03:30N 43°50' W 002°02'0 0.4
2017-Dec-04 03:00N 43°51' W 002°02'0 0.4
2017-Dec-04 02:30N 43°51' W 002°02'0 0.1
2017-Dec-04 02:00N 43°51' W 002°02'4 7.5
2017-Dec-04 01:30N 43°49' W 002°06'4 8.2
2017-Dec-04 01:00N 43°47' W 002°11'4 7.2
2017-Dec-04 00:31N 43°45' W 002°16'4 8.1
2017-Dec-04 00:00N 43°44' W 002°21'4 8.6
2017-Dec-03 23:30N 43°43' W 002°27'4 8.7
2017-Dec-03 23:00N 43°43' W 002°33'4 8.8
2017-Dec-03 22:30N 43°42' W 002°39'4 8.8
2017-Dec-03 22:00N 43°41' W 002°45'4 8.9
2017-Dec-03 21:30N 43°39' W 002°51'4 8.9
2017-Dec-03 21:00N 43°38' W 002°57'4 8.8
2017-Dec-03 20:30N 43°37' W 003°03'4 8.8
2017-Dec-03 20:00N 43°36' W 003°09'4 8.9
2017-Dec-03 19:30N 43°35' W 003°15'5 9.0
2017-Dec-03 19:00N 43°34' W 003°21'4 9.0
2017-Dec-03 18:30N 43°33' W 003°27'4 8.8
2017-Dec-03 18:00N 43°32' W 003°33'5 9.4
2017-Dec-03 17:30N 43°31' W 003°39'6 9.3
2017-Dec-03 16:51N 43°28' W 003°46'  
2017-Nov-29 03:33N 43°27' W 003°49'2 5.1
2017-Nov-29 03:06N 43°28' W 003°46'2 7.1
2017-Nov-29 02:50N 43°30' W 003°47'3 8.9
2017-Nov-29 02:30N 43°31' W 003°50'6 9.1
2017-Nov-29 01:48N 43°31' W 003°59'3 9.0
2017-Nov-29 01:30N 43°31' W 004°03'55 8.9
2017-Nov-28 19:23N 43°38' W 005°18'4 9.2
2017-Nov-28 18:58N 43°39' W 005°23'5 9.0
2017-Nov-28 18:28N 43°39' W 005°29'4 8.5
2017-Nov-28 17:59N 43°40' W 005°35'4 8.7
2017-Nov-28 17:28N 43°41' W 005°41'4 9.1
2017-Nov-28 16:59N 43°41' W 005°47'68 8.9
2017-Nov-28 09:22N 43°48' W 007°20'3 8.1
2017-Nov-28 09:01N 43°48' W 007°24'4 8.3
2017-Nov-28 08:31N 43°49' W 007°30'4 8.5
2017-Nov-28 08:01N 43°49' W 007°36'4 8.6
2017-Nov-28 07:29N 43°49' W 007°42'6 8.8
2017-Nov-28 06:48N 43°49' W 007°50'3 8.6
2017-Nov-28 06:28N 43°49' W 007°55'  
Track history (hours):
 
Tides and Currents Weather Stations Pressure Air Temp Water Temp Dewpoint Dewpoint Depression Visibility Wind Speed Wind Dir Waves Ship Positions

Siempre Rufo

Last reported at 2017-Dec-07 03:47 UTC. Time now 2017-Dec-11 17:25 UTC.
Position N 43°27' W 003°49'.

Length 18 m.

Type: Fishing. MMSI: 224011530.

Date/timePositionNaut miles runAvg speedWind from/ knotsBaromVisibWave heightAir tempDewpointWater temp
2017-Dec-07 03:47N 43°27' W 003°49'5 6.9
2017-Dec-07 03:04N 43°29' W 003°43'1 8.4
2017-Dec-07 02:54N 43°30' W 003°42'3 8.3
2017-Dec-07 02:30N 43°31' W 003°37'4 8.2
2017-Dec-07 02:00N 43°32' W 003°32'4 8.7
2017-Dec-07 01:30N 43°33' W 003°26'4 8.8
2017-Dec-07 01:00N 43°34' W 003°20'4 8.7
2017-Dec-07 00:30N 43°35' W 003°14'5 9.0
2017-Dec-07 00:00N 43°36' W 003°08'4 8.6
2017-Dec-06 23:30N 43°38' W 003°03'4 8.5
2017-Dec-06 23:00N 43°39' W 002°57'4 8.5
2017-Dec-06 22:30N 43°40' W 002°52'4 8.9
2017-Dec-06 22:01N 43°42' W 002°46'4 8.8
2017-Dec-06 21:30N 43°43' W 002°40'4 8.8
2017-Dec-06 21:00N 43°44' W 002°34'  
2017-Dec-04 10:30N 43°50' W 002°02'0 1.0
2017-Dec-04 10:00N 43°51' W 002°02'0 0.7
2017-Dec-04 09:30N 43°51' W 002°02'2 3.3
2017-Dec-04 09:00N 43°49' W 002°02'3 6.9
2017-Dec-04 08:30N 43°46' W 002°01'0 0.2
2017-Dec-04 08:00N 43°46' W 002°01'0 0.2
2017-Dec-04 07:30N 43°46' W 002°01'0 0.2
2017-Dec-04 07:00N 43°46' W 002°01'0 0.1
2017-Dec-04 06:30N 43°46' W 002°01'0 0.1
2017-Dec-04 06:00N 43°46' W 002°01'1 1.5
2017-Dec-04 05:30N 43°46' W 002°01'1 1.6
2017-Dec-04 05:00N 43°47' W 002°01'1 1.4
2017-Dec-04 04:30N 43°48' W 002°01'1 2.5
2017-Dec-04 04:00N 43°49' W 002°02'1 2.7
2017-Dec-04 03:30N 43°50' W 002°02'0 0.4
2017-Dec-04 03:00N 43°51' W 002°02'0 0.4
2017-Dec-04 02:30N 43°51' W 002°02'0 0.1
2017-Dec-04 02:00N 43°51' W 002°02'4 7.5
2017-Dec-04 01:30N 43°49' W 002°06'4 8.2
2017-Dec-04 01:00N 43°47' W 002°11'4 7.2
2017-Dec-04 00:31N 43°45' W 002°16'4 8.1
2017-Dec-04 00:00N 43°44' W 002°21'4 8.6
2017-Dec-03 23:30N 43°43' W 002°27'4 8.7
2017-Dec-03 23:00N 43°43' W 002°33'4 8.8
2017-Dec-03 22:30N 43°42' W 002°39'4 8.8
2017-Dec-03 22:00N 43°41' W 002°45'4 8.9
2017-Dec-03 21:30N 43°39' W 002°51'4 8.9
2017-Dec-03 21:00N 43°38' W 002°57'4 8.8
2017-Dec-03 20:30N 43°37' W 003°03'4 8.8
2017-Dec-03 20:00N 43°36' W 003°09'4 8.9
2017-Dec-03 19:30N 43°35' W 003°15'5 9.0
2017-Dec-03 19:00N 43°34' W 003°21'4 9.0
2017-Dec-03 18:30N 43°33' W 003°27'4 8.8
2017-Dec-03 18:00N 43°32' W 003°33'5 9.4
2017-Dec-03 17:30N 43°31' W 003°39'6 9.3
2017-Dec-03 16:51N 43°28' W 003°46'  
2017-Nov-29 03:33N 43°27' W 003°49'2 5.1
2017-Nov-29 03:06N 43°28' W 003°46'2 7.1
2017-Nov-29 02:50N 43°30' W 003°47'3 8.9
2017-Nov-29 02:30N 43°31' W 003°50'6 9.1
2017-Nov-29 01:48N 43°31' W 003°59'3 9.0
2017-Nov-29 01:30N 43°31' W 004°03'55 8.9
2017-Nov-28 19:23N 43°38' W 005°18'4 9.2
2017-Nov-28 18:58N 43°39' W 005°23'5 9.0
2017-Nov-28 18:28N 43°39' W 005°29'4 8.5
2017-Nov-28 17:59N 43°40' W 005°35'4 8.7
2017-Nov-28 17:28N 43°41' W 005°41'4 9.1
2017-Nov-28 16:59N 43°41' W 005°47'68 8.9
2017-Nov-28 09:22N 43°48' W 007°20'3 8.1
2017-Nov-28 09:01N 43°48' W 007°24'4 8.3
2017-Nov-28 08:31N 43°49' W 007°30'4 8.5
2017-Nov-28 08:01N 43°49' W 007°36'4 8.6
2017-Nov-28 07:29N 43°49' W 007°42'6 8.8
2017-Nov-28 06:48N 43°49' W 007°50'3 8.6
2017-Nov-28 06:28N 43°49' W 007°55'  

Dump ship's entire track history